DEGEG EDDS-STG

Flight info

Callsign DEGEG
Flight time N/A
Altitude 6000
Route TEDGO1K TEDGO DCT
Aircraft C172/L-VGDW/C

Departure

Time 2026-05-01 14:20
Airport Stuttgart Airport (EDDS)

Arrival

Time N/A
Airport STG
Time Latitude Longitude Altitude Speed Heading
2026-05-01 14:12 48.69162 9.21442 1257 ft 0 kts 220°
2026-05-01 14:15 48.69158 9.21429 1257 ft 5 kts 256°
2026-05-01 14:15 48.69161 9.21360 1258 ft 6 kts 246°
2026-05-01 14:15 48.69150 9.21303 1260 ft 5 kts 253°
2026-05-01 14:16 48.69111 9.21304 1259 ft 10 kts 166°
2026-05-01 14:16 48.69077 9.21401 1256 ft 13 kts 136°
2026-05-01 14:16 48.68977 9.21451 1253 ft 12 kts 167°
2026-05-01 14:16 48.68938 9.21468 1250 ft 0 kts 166°
2026-05-01 14:17 48.68901 9.21484 1248 ft 9 kts 162°
2026-05-01 14:18 48.68862 9.21535 1247 ft 6 kts 69°
2026-05-01 14:18 48.68865 9.21548 1247 ft 0 kts 73°
2026-05-01 14:19 48.68912 9.21795 1243 ft 48 kts 72°
2026-05-01 14:19 48.69039 9.22430 1315 ft 69 kts 74°
2026-05-01 14:19 48.69199 9.23137 1468 ft 75 kts 71°
2026-05-01 14:19 48.69547 9.23668 1707 ft 86 kts
2026-05-01 14:20 48.70120 9.23273 1981 ft 92 kts 338°
2026-05-01 14:20 48.70203 9.21233 2163 ft 116 kts 253°
2026-05-01 14:20 48.69975 9.20075 2233 ft 111 kts 251°
2026-05-01 14:21 48.69725 9.18972 2267 ft 112 kts 245°
2026-05-01 14:21 48.69203 9.18282 2250 ft 101 kts 180°
2026-05-01 14:21 48.68643 9.18757 1973 ft 97 kts 110°
2026-05-01 14:22 48.68654 9.20425 1322 ft 66 kts 77°
2026-05-01 14:22 48.68761 9.21016 1262 ft 62 kts 76°
2026-05-01 14:22 48.68914 9.21722 1344 ft 78 kts 75°
2026-05-01 14:22 48.69062 9.22533 1486 ft 83 kts 73°
2026-05-01 14:23 48.69440 9.23032 1689 ft 75 kts
2026-05-01 14:23 48.69932 9.22674 1829 ft 80 kts 335°
2026-05-01 14:23 48.70283 9.22045 1966 ft 93 kts 271°
2026-05-01 14:23 48.70062 9.21013 1930 ft 110 kts 249°
2026-05-01 14:24 48.69819 9.19923 2116 ft 106 kts 251°
2026-05-01 14:24 48.69625 9.18906 2306 ft 100 kts 252°
2026-05-01 14:24 48.69460 9.17873 2391 ft 102 kts 254°
2026-05-01 14:24 48.69352 9.16820 2509 ft 100 kts 273°
2026-05-01 14:25 48.69683 9.15965 2634 ft 96 kts 330°
2026-05-01 14:25 48.70268 9.15846 2765 ft 82 kts 47°
2026-05-01 14:25 48.70168 9.16548 2674 ft 100 kts 148°
2026-05-01 14:25 48.69398 9.16629 2404 ft 115 kts 193°
2026-05-01 14:26 48.68847 9.16075 2415 ft 77 kts 199°
2026-05-01 14:26 48.68189 9.16690 2222 ft 70 kts 105°
2026-05-01 14:26 48.68130 9.17429 1988 ft 76 kts 87°
2026-05-01 14:27 48.68237 9.18248 1702 ft 76 kts 78°
2026-05-01 14:27 48.68375 9.18965 1547 ft 67 kts 77°
2026-05-01 14:27 48.68507 9.19635 1421 ft 65 kts 77°
2026-05-01 14:28 48.68748 9.20896 1268 ft 59 kts 77°
2026-05-01 14:28 48.68840 9.21425 1250 ft 40 kts 71°
2026-05-01 14:28 48.68950 9.21463 1253 ft 9 kts 333°
2026-05-01 14:28 48.68954 9.21461 1253 ft 0 kts 340°
2026-05-01 14:30 48.68974 9.21453 1251 ft 0 kts 340°
2026-05-01 14:30 48.68983 9.21449 1254 ft 3 kts 343°
2026-05-01 14:30 48.69018 9.21433 1255 ft 8 kts 346°
2026-05-01 14:31 48.69113 9.21303 1259 ft 10 kts 340°
2026-05-01 14:31 48.69156 9.21341 1259 ft 9 kts 102°
2026-05-01 14:31 48.69142 9.21342 1259 ft 0 kts 225°